Time;durP1;ratioP1;P1;durP2;ratioP2;P2;SDS_P1;SDS_P2;PMS_P1;PMS_P2;Temp;Humidity;BMP_temperature;BMP_pressure;BME280_temperature;BME280_humidity;BME280_pressure;Samples;Min_cycle;Max_cycle;Signal;HPM_P1;HPM_P2
2023/02/22 00:02:11;;;;;;;24.30;19.13;;;;;;;8.03;100.00;101428.41;5113892;27;20418;-67
2023/02/22 00:04:39;;;;;;;26.00;19.67;;;;;;;8.03;100.00;101428.41;5115543;28;20036;-67
2023/02/22 00:07:09;;;;;;;25.58;19.15;;;;;;;8.02;100.00;101434.91;5111177;28;20468;-67
2023/02/22 00:09:37;;;;;;;26.63;20.60;;;;;;;8.02;100.00;101425.94;5095971;27;20052;-67
2023/02/22 00:12:05;;;;;;;25.10;19.63;;;;;;;7.98;100.00;101431.00;5094727;28;20044;-68
2023/02/22 00:14:32;;;;;;;26.85;19.17;;;;;;;7.98;100.00;101436.41;5094783;28;20047;-68
2023/02/22 00:17:00;;;;;;;26.15;19.95;;;;;;;7.99;100.00;101432.66;5093300;28;20085;-67
2023/02/22 00:19:29;;;;;;;29.80;21.40;;;;;;;7.97;100.00;101429.34;5103343;27;20051;-67
2023/02/22 00:21:57;;;;;;;31.98;20.45;;;;;;;7.95;100.00;101426.03;5114906;28;20224;-66
2023/02/22 00:24:25;;;;;;;26.40;19.40;;;;;;;7.96;100.00;101425.00;5112908;28;20048;-66
2023/02/22 00:26:56;;;;;;;27.42;20.42;;;;;;;8.01;100.00;101416.13;5113021;28;20403;-67
2023/02/22 00:29:24;;;;;;;24.52;18.42;;;;;;;8.05;100.00;101422.75;5094757;27;20045;-67
2023/02/22 00:31:52;;;;;;;26.73;20.27;;;;;;;7.98;100.00;101430.16;5093312;28;20101;-67
2023/02/22 00:34:22;;;;;;;27.50;20.08;;;;;;;7.95;100.00;101434.19;5092947;28;20123;-67
2023/02/22 00:36:50;;;;;;;26.60;20.25;;;;;;;7.94;100.00;101429.81;5100938;28;20074;-66
2023/02/22 00:39:19;;;;;;;24.30;17.80;;;;;;;7.96;100.00;101427.72;5125831;28;20123;-67
2023/02/22 00:41:46;;;;;;;23.05;16.45;;;;;;;7.97;100.00;101417.69;5098503;28;20040;-67
2023/02/22 00:44:14;;;;;;;28.05;20.30;;;;;;;7.94;100.00;101413.56;5094657;28;20040;-67
2023/02/22 00:46:42;;;;;;;25.60;19.55;;;;;;;7.94;100.00;101424.41;5107362;28;20167;-65
2023/02/22 00:49:09;;;;;;;26.88;18.80;;;;;;;7.94;100.00;101421.69;5107349;28;20055;-67
2023/02/22 00:51:37;;;;;;;26.83;20.08;;;;;;;7.92;100.00;101421.09;5095581;27;20078;-67
2023/02/22 00:54:05;;;;;;;27.25;20.33;;;;;;;7.90;100.00;101418.59;5094124;28;20051;-67
2023/02/22 00:56:33;;;;;;;26.60;19.88;;;;;;;7.91;100.00;101408.56;5102210;27;20071;-68
2023/02/22 00:59:01;;;;;;;30.20;21.35;;;;;;;7.88;100.00;101401.72;5112328;28;20384;-67
2023/02/22 01:01:30;;;;;;;30.13;22.00;;;;;;;7.88;100.00;101403.63;5112704;27;20046;-68
2023/02/22 01:03:58;;;;;;;27.58;20.98;;;;;;;7.88;100.00;101398.19;5113902;28;20058;-66
2023/02/22 01:06:25;;;;;;;31.77;22.83;;;;;;;7.84;100.00;101397.84;5110091;28;20050;-67
2023/02/22 01:08:53;;;;;;;30.63;21.90;;;;;;;7.77;100.00;101407.16;5092297;28;20047;-67
2023/02/22 01:11:21;;;;;;;32.40;23.17;;;;;;;7.77;100.00;101399.00;5076838;27;20081;-67
2023/02/22 01:13:48;;;;;;;32.97;23.55;;;;;;;7.76;100.00;101402.78;5092041;28;20403;-67
2023/02/22 01:16:16;;;;;;;35.28;24.33;;;;;;;7.76;100.00;101395.47;5092426;28;20040;-67
2023/02/22 01:18:44;;;;;;;32.22;23.95;;;;;;;7.78;100.00;101398.78;5094142;28;20052;-67
2023/02/22 01:21:11;;;;;;;35.83;24.98;;;;;;;7.80;100.00;101395.84;5092811;28;20445;-67
2023/02/22 01:23:43;;;;;;;32.42;23.50;;;;;;;7.76;100.00;101397.38;5090661;28;20403;-67
2023/02/22 01:26:10;;;;;;;31.35;22.50;;;;;;;7.78;100.00;101395.25;5095881;28;20126;-67
2023/02/22 01:28:38;;;;;;;28.38;20.67;;;;;;;7.78;100.00;101387.13;5086037;28;20047;-67
2023/02/22 01:31:06;;;;;;;34.47;24.73;;;;;;;7.73;100.00;101378.88;5110690;28;20082;-66
2023/02/22 01:33:34;;;;;;;36.10;25.23;;;;;;;7.73;100.00;101387.00;5113038;28;20052;-66
2023/02/22 01:36:02;;;;;;;33.63;23.70;;;;;;;7.72;100.00;101378.03;5114024;28;20048;-66
2023/02/22 01:38:30;;;;;;;35.50;25.98;;;;;;;7.72;100.00;101383.47;5114626;28;20047;-66
2023/02/22 01:40:57;;;;;;;35.00;25.88;;;;;;;7.67;100.00;101370.59;5098861;28;20044;-66
2023/02/22 01:43:30;;;;;;;34.28;25.08;;;;;;;7.66;100.00;101377.06;5118062;28;20046;-67
2023/02/22 01:46:00;;;;;;;34.30;25.05;;;;;;;7.67;100.00;101370.59;5118487;28;20048;-66
2023/02/22 01:48:46;;;;;;;34.50;22.60;;;;;;;7.71;100.00;101372.84;5099085;28;20069;-66
2023/02/22 01:51:38;;;;;;;35.25;25.35;;;;;;;7.68;100.00;101366.00;5119290;28;20047;-67
2023/02/22 01:54:09;;;;;;;38.45;27.00;;;;;;;7.66;100.00;101374.38;5123350;28;20394;-67
2023/02/22 01:56:44;;;;;;;36.60;26.65;;;;;;;7.66;100.00;101368.94;5110273;28;20111;-67
2023/02/22 01:59:12;;;;;;;34.63;25.33;;;;;;;7.68;100.00;101360.59;5121414;28;20048;-67
2023/02/22 02:01:41;;;;;;;37.15;26.85;;;;;;;7.70;100.00;101361.19;5102331;28;20059;-67
2023/02/22 02:04:19;;;;;;;34.28;26.13;;;;;;;7.66;100.00;101360.81;5104647;28;20050;-67
2023/02/22 02:06:47;;;;;;;35.80;27.17;;;;;;;7.62;100.00;101358.78;5102435;28;20241;-67
2023/02/22 02:09:45;;;;;;;35.42;26.35;;;;;;;7.60;100.00;101359.06;5118427;28;20036;-66
2023/02/22 02:12:15;;;;;;;35.67;25.90;;;;;;;7.56;100.00;101360.56;5105303;28;20511;-66
2023/02/22 02:14:43;;;;;;;35.97;25.73;;;;;;;7.56;100.00;101351.63;5118453;27;20036;-66
2023/02/22 02:17:14;;;;;;;39.00;28.17;;;;;;;7.54;100.00;101349.13;5099195;28;20044;-66
2023/02/22 02:20:01;;;;;;;38.17;27.83;;;;;;;7.47;100.00;101354.66;5089815;28;20071;-67
2023/02/22 02:22:41;;;;;;;36.63;27.23;;;;;;;7.43;100.00;101352.66;5112364;28;20081;-67
2023/02/22 02:25:48;;;;;;;40.25;28.58;;;;;;;7.45;100.00;101339.69;5100416;28;20127;-66
2023/02/22 02:28:46;;;;;;;37.67;27.63;;;;;;;7.47;100.00;101337.56;5099847;28;20058;-66
2023/02/22 02:31:35;;;;;;;38.05;28.67;;;;;;;7.48;100.00;101328.41;5112775;28;20044;-66
2023/02/22 02:34:08;;;;;;;;;;;;;;;7.52;100.00;101320.59;5102060;27;20048;-66
2023/02/22 02:36:51;;;;;;;39.17;28.75;;;;;;;7.54;100.00;101323.91;5114900;28;19920;-67
2023/02/22 02:39:25;;;;;;;38.63;28.83;;;;;;;7.55;100.00;101318.25;5115488;28;20051;-66
2023/02/22 02:41:53;;;;;;;42.03;30.27;;;;;;;7.53;100.00;101314.94;5096618;28;20067;-66
2023/02/22 02:44:27;;;;;;;41.03;29.65;;;;;;;7.49;100.00;101315.66;5097528;28;20048;-66
2023/02/22 02:47:24;;;;;;;42.40;30.15;;;;;;;7.43;100.00;101303.84;5096220;28;20403;-66
2023/02/22 02:50:05;;;;;;;41.83;31.45;;;;;;;7.37;100.00;101312.94;5096061;28;20460;-66
2023/02/22 02:52:34;;;;;;;40.80;29.67;;;;;;;7.33;100.00;101301.72;5078918;28;20067;-66
2023/02/22 02:55:04;;;;;;;40.80;29.65;;;;;;;7.33;100.00;101298.19;5100884;27;20074;-66
2023/02/22 02:57:33;;;;;;;40.97;30.30;;;;;;;7.33;100.00;101304.44;5098142;28;20071;-66
2023/02/22 03:00:00;;;;;;;40.22;29.98;;;;;;;7.34;100.00;101299.84;5116577;28;20079;-66
2023/02/22 03:02:44;;;;;;;42.92;31.13;;;;;;;7.37;100.00;101310.22;5118288;28;20079;-66
2023/02/22 03:06:04;;;;;;;44.58;31.20;;;;;;;7.40;100.00;101305.13;5108787;27;20119;-66
2023/02/22 03:08:50;;;;;;;43.80;30.98;;;;;;;7.42;100.00;101302.22;5029802;28;20630;-66
2023/02/22 03:11:20;;;;;;;46.20;32.45;;;;;;;7.40;100.00;101298.91;5094937;28;20086;-66
2023/02/22 03:14:08;;;;;;;43.30;31.60;;;;;;;7.37;100.00;101304.81;5088340;28;20077;-66
2023/02/22 03:16:51;;;;;;;36.28;25.67;;;;;;;7.35;100.00;101301.50;5082630;28;20146;-66
2023/02/22 03:19:44;;;;;;;36.42;24.33;;;;;;;7.32;100.00;101296.56;5095147;28;20051;-65
2023/02/22 03:22:23;;;;;;;42.20;29.30;;;;;;;7.31;100.00;101295.72;5078211;28;20109;-66
2023/02/22 03:24:57;;;;;;;43.03;30.90;;;;;;;7.28;100.00;101287.22;5079800;28;20525;-66
2023/02/22 03:27:27;;;;;;;44.47;32.40;;;;;;;7.28;100.00;101287.22;5107558;28;20499;-66
2023/02/22 03:30:02;;;;;;;45.97;33.03;;;;;;;7.25;100.00;101286.63;5114315;28;20047;-67
2023/02/22 03:32:36;;;;;;;46.85;32.65;;;;;;;7.25;100.00;101286.63;5099080;28;20402;-66
2023/02/22 03:35:12;;;;;;;42.90;31.45;;;;;;;7.27;100.00;101275.56;5087858;28;20047;-66
2023/02/22 03:37:43;;;;;;;46.83;31.33;;;;;;;7.29;100.00;101272.59;5091991;28;20048;-67
2023/02/22 03:40:15;;;;;;;46.00;31.85;;;;;;;7.33;100.00;101276.50;5094514;28;20047;-67
2023/02/22 03:42:49;;;;;;;37.08;25.80;;;;;;;7.38;100.00;101273.91;5112325;28;20055;-64
2023/02/22 03:45:18;;;;;;;44.90;31.00;;;;;;;7.37;100.00;101283.13;5096519;28;20483;-67
2023/02/22 03:47:52;;;;;;;41.15;26.63;;;;;;;7.36;100.00;101276.03;5088608;28;20044;-66
2023/02/22 03:50:32;;;;;;;47.83;32.15;;;;;;;7.34;100.00;101272.75;5093706;28;20138;-66
2023/02/22 03:53:00;;;;;;;43.63;29.88;;;;;;;7.30;100.00;101266.13;5077021;28;20618;-66
2023/02/22 03:55:30;;;;;;;45.45;31.17;;;;;;;7.29;100.00;101259.06;5097188;28;20040;-66
2023/02/22 03:58:00;;;;;;;44.33;30.25;;;;;;;7.25;100.00;101270.38;5114349;27;20092;-66
2023/02/22 04:00:32;;;;;;;43.30;30.52;;;;;;;7.24;100.00;101259.78;5097756;28;20043;-66
2023/02/22 04:03:01;;;;;;;42.38;30.42;;;;;;;7.24;100.00;101257.91;5099034;28;20043;-66
2023/02/22 04:05:28;;;;;;;38.70;26.55;;;;;;;7.25;100.00;101256.81;5116408;28;20043;-66
2023/02/22 04:07:58;;;;;;;39.72;27.83;;;;;;;7.24;100.00;101252.47;5095958;28;20484;-66
2023/02/22 04:10:26;;;;;;;41.63;29.23;;;;;;;7.22;100.00;101251.06;5109084;28;20094;-66
2023/02/22 04:12:54;;;;;;;46.47;30.35;;;;;;;7.20;100.00;101251.28;5113862;28;20118;-67
2023/02/22 04:15:23;;;;;;;43.53;28.80;;;;;;;7.23;100.00;101244.56;5075945;28;20052;-66
2023/02/22 04:17:56;;;;;;;42.85;29.50;;;;;;;7.25;100.00;101242.44;5094693;28;20075;-67
2023/02/22 04:20:24;;;;;;;39.17;27.30;;;;;;;7.21;100.00;101239.38;5080036;28;20054;-66
2023/02/22 04:22:58;;;;;;;42.30;29.20;;;;;;;7.22;100.00;101230.19;5105534;28;20489;-67
2023/02/22 04:25:26;;;;;;;38.53;27.65;;;;;;;7.20;100.00;101228.78;5086031;28;20047;-65
2023/02/22 04:27:53;;;;;;;39.30;27.00;;;;;;;7.15;100.00;101221.34;5124281;28;20040;-66
2023/02/22 04:30:32;;;;;;;34.70;25.30;;;;;;;7.12;100.00;101216.41;5116651;27;20086;-67
2023/02/22 04:33:02;;;;;;;33.95;25.10;;;;;;;7.06;100.00;101208.41;5113654;28;20051;-66
2023/02/22 04:35:30;;;;;;;32.33;23.23;;;;;;;6.99;100.00;101200.38;5102483;28;20108;-65
2023/02/22 04:38:03;;;;;;;32.58;23.55;;;;;;;7.00;100.00;101202.88;5107421;28;20052;-65
2023/02/22 04:40:31;;;;;;;32.13;22.98;;;;;;;7.04;100.00;101197.78;5118680;27;20067;-66
2023/02/22 04:42:59;;;;;;;29.98;22.13;;;;;;;7.03;100.00;101193.44;5096823;28;20086;-65
2023/02/22 04:45:27;;;;;;;27.83;21.33;;;;;;;7.02;100.00;101197.19;5096445;28;20090;-66
2023/02/22 04:47:55;;;;;;;28.65;21.55;;;;;;;7.06;100.00;101194.84;5113034;28;20051;-67
2023/02/22 04:50:23;;;;;;;30.48;21.80;;;;;;;7.06;100.00;101198.38;5113037;28;20035;-66
2023/02/22 04:52:51;;;;;;;26.88;20.45;;;;;;;7.03;100.00;101194.25;5096173;28;20123;-67
2023/02/22 04:55:19;;;;;;;28.65;21.77;;;;;;;7.08;100.00;101204.38;5092915;28;20054;-66
2023/02/22 04:57:47;;;;;;;27.05;20.40;;;;;;;7.10;100.00;101202.28;5075746;28;20130;-67
2023/02/22 05:00:20;;;;;;;25.98;20.17;;;;;;;7.08;100.00;101206.28;5085918;28;20549;-67
2023/02/22 05:02:49;;;;;;;27.10;20.00;;;;;;;7.03;100.00;101198.84;5074678;28;20553;-67
2023/02/22 05:05:20;;;;;;;24.98;18.70;;;;;;;7.00;100.00;101196.63;5108039;28;20055;-67
2023/02/22 05:07:48;;;;;;;27.50;19.60;;;;;;;7.04;100.00;101198.59;5102414;28;20127;-68
2023/02/22 05:10:17;;;;;;;26.40;20.30;;;;;;;7.07;100.00;101186.50;5103177;28;20130;-67
2023/02/22 05:12:44;;;;;;;23.50;17.83;;;;;;;7.09;100.00;101184.34;5109422;28;20051;-67
2023/02/22 05:15:17;;;;;;;26.77;20.08;;;;;;;7.10;100.00;101180.59;5090749;28;20488;-67
2023/02/22 05:17:45;;;;;;;28.17;20.13;;;;;;;7.11;100.00;101184.94;5092786;28;20044;-66
2023/02/22 05:20:30;;;;;;;29.55;21.50;;;;;;;7.10;100.00;101182.50;5098105;28;20040;-66
2023/02/22 05:22:59;;;;;;;24.73;19.70;;;;;;;7.05;100.00;101188.63;5112729;28;20048;-67
2023/02/22 05:25:27;;;;;;;26.58;20.13;;;;;;;7.06;100.00;101190.25;5112887;28;20061;-67
2023/02/22 05:27:57;;;;;;;28.17;21.35;;;;;;;7.06;100.00;101190.25;5112648;28;20044;-67
2023/02/22 05:30:28;;;;;;;26.67;20.45;;;;;;;7.05;100.00;101188.63;5111868;28;20057;-67
2023/02/22 05:32:58;;;;;;;27.55;21.33;;;;;;;7.02;100.00;101183.63;5089278;28;20044;-67
2023/02/22 05:35:26;;;;;;;26.92;20.20;;;;;;;7.00;100.00;101175.78;5092669;28;20048;-67
2023/02/22 05:37:53;;;;;;;27.95;21.23;;;;;;;7.01;100.00;101169.28;5091951;28;20055;-67
2023/02/22 05:40:23;;;;;;;29.65;20.77;;;;;;;7.03;100.00;101175.28;5093373;28;20499;-67
2023/02/22 05:42:51;;;;;;;28.58;21.17;;;;;;;7.06;100.00;101178.59;5109841;28;20071;-68
2023/02/22 05:45:21;;;;;;;28.33;21.70;;;;;;;7.05;100.00;101169.66;5095218;28;20045;-68
2023/02/22 05:47:49;;;;;;;27.48;21.10;;;;;;;7.04;100.00;101165.28;5112282;28;20388;-68
2023/02/22 05:50:18;;;;;;;30.33;22.75;;;;;;;7.03;100.00;101163.63;5112002;28;20048;-67
2023/02/22 05:52:50;;;;;;;29.10;22.02;;;;;;;7.02;100.00;101156.56;5106433;28;20413;-67
2023/02/22 05:55:20;;;;;;;29.02;21.88;;;;;;;7.01;100.00;101163.84;5093352;28;20488;-67
2023/02/22 05:57:48;;;;;;;30.88;22.20;;;;;;;7.01;100.00;101152.22;5075497;28;20547;-67
2023/02/22 06:00:24;;;;;;;29.63;21.83;;;;;;;6.99;100.00;101152.44;5091698;28;20059;-68
2023/02/22 06:03:01;;;;;;;27.52;20.48;;;;;;;7.02;100.00;101151.13;5100294;28;20055;-68
2023/02/22 06:05:28;;;;;;;;;;;;;;;7.04;100.00;101143.59;5113654;28;20047;-68
2023/02/22 06:07:57;;;;;;;31.10;21.35;;;;;;;7.07;100.00;101137.72;5116739;28;19987;-66
2023/02/22 06:10:31;;;;;;;34.10;23.38;;;;;;;7.11;100.00;101132.66;5118319;28;20548;-67
2023/02/22 06:13:02;;;;;;;30.77;21.63;;;;;;;7.11;100.00;101128.03;5109538;28;20044;-68
2023/02/22 06:15:30;;;;;;;31.95;22.75;;;;;;;7.07;100.00;101129.59;5095483;28;20119;-67
2023/02/22 06:17:58;;;;;;;31.95;22.38;;;;;;;7.06;100.00;101130.66;5100823;28;20150;-67
2023/02/22 06:20:27;;;;;;;31.02;22.95;;;;;;;7.07;100.00;101132.31;5091275;28;20051;-68
2023/02/22 06:22:56;;;;;;;32.25;23.15;;;;;;;7.03;100.00;101126.53;5111862;28;20070;-67
2023/02/22 06:25:26;;;;;;;34.38;22.38;;;;;;;7.04;100.00;101124.63;5090019;28;20047;-67
2023/02/22 06:27:54;;;;;;;31.98;23.05;;;;;;;7.05;100.00;101126.28;5108839;28;20565;-66
2023/02/22 06:30:23;;;;;;;33.60;23.98;;;;;;;7.07;100.00;101116.06;5092917;28;20044;-67
2023/02/22 06:32:51;;;;;;;35.35;24.98;;;;;;;7.07;100.00;101116.06;5102078;28;20430;-68
2023/02/22 06:35:19;;;;;;;35.10;23.95;;;;;;;6.95;100.00;101107.09;4387764;28;9999909;-68
2023/02/22 06:37:47;;;;;;;34.65;23.67;;;;;;;6.83;100.00;101102.53;5088774;28;20080;-66
2023/02/22 06:40:15;;;;;;;31.63;23.50;;;;;;;6.75;100.00;101093.91;5092508;28;20381;-67
2023/02/22 06:42:42;;;;;;;33.70;23.60;;;;;;;6.68;100.00;101090.50;5093914;28;20062;-67
2023/02/22 06:45:10;;;;;;;36.17;25.58;;;;;;;6.69;100.00;101084.88;5106139;27;20134;-67
2023/02/22 06:47:40;;;;;;;31.83;22.45;;;;;;;6.68;100.00;101093.22;5104176;28;20048;-67
2023/02/22 06:50:21;;;;;;;34.42;24.02;;;;;;;6.67;100.00;101089.69;5091573;28;20134;-66
2023/02/22 06:52:49;;;;;;;33.95;24.02;;;;;;;6.69;100.00;101092.97;5102655;27;20043;-67
2023/02/22 06:55:26;;;;;;;33.53;24.77;;;;;;;6.76;100.00;101090.16;5077386;28;20040;-67
2023/02/22 06:57:53;;;;;;;32.58;23.10;;;;;;;6.82;100.00;101105.44;5091327;28;20130;-67
2023/02/22 07:00:23;;;;;;;33.13;23.48;;;;;;;6.88;100.00;101103.66;5091384;28;20380;-67
2023/02/22 07:02:52;;;;;;;34.50;24.40;;;;;;;6.91;100.00;101108.63;5079336;27;20043;-66
2023/02/22 07:05:21;;;;;;;33.70;24.30;;;;;;;6.93;100.00;101099.22;5112723;28;20071;-68
2023/02/22 07:07:51;;;;;;;32.83;22.40;;;;;;;6.98;100.00;101098.50;5094599;28;20044;-66
2023/02/22 07:10:25;;;;;;;31.58;22.85;;;;;;;6.99;100.00;101109.09;5110444;28;20061;-66
2023/02/22 07:12:53;;;;;;;32.85;23.65;;;;;;;6.99;100.00;101111.78;5100674;27;20465;-67
2023/02/22 07:15:23;;;;;;;34.58;23.13;;;;;;;6.98;100.00;101112.06;5108604;27;20557;-66
2023/02/22 07:17:51;;;;;;;37.97;25.35;;;;;;;6.93;100.00;101109.22;5101961;27;20054;-64
2023/02/22 07:20:20;;;;;;;35.30;24.80;;;;;;;6.88;100.00;101120.78;5113875;27;20048;-63
2023/02/22 07:22:48;;;;;;;34.53;25.10;;;;;;;6.88;100.00;101119.91;5093548;28;20051;-65
2023/02/22 07:25:16;;;;;;;35.42;25.42;;;;;;;6.89;100.00;101118.88;5095981;28;20497;-63
2023/02/22 07:27:45;;;;;;;38.25;26.02;;;;;;;6.90;100.00;101125.94;5109013;28;20115;-66
2023/02/22 07:30:23;;;;;;;39.22;26.55;;;;;;;6.88;100.00;101122.63;5094461;28;20078;-66
2023/02/22 07:32:53;;;;;;;38.88;26.60;;;;;;;6.88;100.00;101117.22;5108786;27;20535;-65
2023/02/22 07:35:32;;;;;;;40.17;26.83;;;;;;;6.85;100.00;101123.94;5108522;28;20047;-66
2023/02/22 07:38:00;;;;;;;37.45;25.52;;;;;;;6.88;100.00;101123.47;5114450;28;20043;-65
2023/02/22 07:40:28;;;;;;;35.45;24.70;;;;;;;6.92;100.00;101129.25;5115205;28;20044;-66
2023/02/22 07:43:04;;;;;;;35.08;24.20;;;;;;;6.95;100.00;101129.59;5112014;28;20071;-66
2023/02/22 07:45:34;;;;;;;35.80;24.58;;;;;;;6.96;100.00;101125.81;5098045;28;20463;-66
2023/02/22 07:48:05;;;;;;;38.78;25.45;;;;;;;6.98;100.00;101125.59;5114558;28;20054;-66
2023/02/22 07:50:33;;;;;;;41.50;26.05;;;;;;;6.97;100.00;101121.22;5112844;28;20044;-66
2023/02/22 07:53:05;;;;;;;38.80;25.73;;;;;;;6.92;100.00;101124.63;5099221;28;20043;-66
2023/02/22 07:55:34;;;;;;;37.33;24.80;;;;;;;6.94;100.00;101127.13;5110307;28;20185;-64
2023/02/22 07:58:04;;;;;;;36.50;25.48;;;;;;;6.93;100.00;101131.72;5112737;28;20061;-65
2023/02/22 08:00:38;;;;;;;42.60;27.10;;;;;;;6.92;100.00;101131.94;5115040;28;20044;-66
2023/02/22 08:03:07;;;;;;;37.10;25.63;;;;;;;6.93;100.00;101139.84;5113923;28;20143;-65
2023/02/22 08:05:37;;;;;;;35.58;24.48;;;;;;;7.00;100.00;101142.44;5114360;28;20040;-64
2023/02/22 08:08:05;;;;;;;35.42;25.35;;;;;;;7.03;100.00;101145.50;5114106;28;20048;-66
2023/02/22 08:10:34;;;;;;;35.72;25.17;;;;;;;7.07;100.00;101137.72;5111458;28;20085;-66
2023/02/22 08:13:03;;;;;;;33.90;23.63;;;;;;;7.08;100.00;101133.94;5093860;28;20044;-64
2023/02/22 08:15:36;;;;;;;35.33;23.90;;;;;;;7.04;100.00;101138.19;5095094;28;20059;-65
2023/02/22 08:18:07;;;;;;;38.55;25.20;;;;;;;7.07;100.00;101137.72;5101736;28;20043;-65
2023/02/22 08:20:36;;;;;;;39.58;26.17;;;;;;;7.09;100.00;101145.59;5108449;28;20043;-68
2023/02/22 08:23:05;;;;;;;35.92;25.20;;;;;;;7.10;100.00;101137.25;5119664;28;20050;-64
2023/02/22 08:25:33;;;;;;;35.80;24.52;;;;;;;7.13;100.00;101141.38;5116990;28;20059;-64
2023/02/22 08:28:04;;;;;;;41.28;25.95;;;;;;;7.15;100.00;101142.78;5127968;28;20052;-64
2023/02/22 08:30:33;;;;;;;35.72;24.08;;;;;;;7.16;100.00;101146.31;5126407;28;20051;-65
2023/02/22 08:33:02;;;;;;;38.85;24.90;;;;;;;7.17;100.00;101146.06;5112380;28;20055;-63
2023/02/22 08:35:31;;;;;;;34.78;25.23;;;;;;;7.18;100.00;101134.16;5102049;28;20044;-62
2023/02/22 08:38:01;;;;;;;38.85;26.30;;;;;;;7.14;100.00;101124.84;5101518;28;20066;-62
2023/02/22 08:40:32;;;;;;;80.10;37.13;;;;;;;7.26;100.00;101116.69;5077956;28;20438;-65
2023/02/22 08:43:00;;;;;;;42.97;26.75;;;;;;;7.25;100.00;101117.78;5093402;28;20131;-64
2023/02/22 08:45:29;;;;;;;36.90;25.02;;;;;;;7.14;100.00;101114.00;5093435;28;20483;-64
2023/02/22 08:47:58;;;;;;;38.35;26.80;;;;;;;7.04;100.00;101109.19;5094800;28;20047;-62
2023/02/22 08:50:28;;;;;;;39.22;26.83;;;;;;;6.94;100.00;101108.16;5076064;28;20058;-63
2023/02/22 08:52:58;;;;;;;33.42;23.52;;;;;;;6.92;100.00;101112.97;5111214;28;20044;-64
2023/02/22 08:55:31;;;;;;;35.63;25.05;;;;;;;7.00;100.00;101104.50;5113934;28;20067;-64
2023/02/22 08:58:01;;;;;;;37.22;25.48;;;;;;;7.09;100.00;101111.19;5114429;28;20035;-63
2023/02/22 09:00:34;;;;;;;40.30;27.60;;;;;;;7.14;100.00;101115.91;5113918;28;20051;-64
2023/02/22 09:03:02;;;;;;;38.17;25.85;;;;;;;7.19;100.00;101116.00;5116908;28;20059;-63
2023/02/22 09:05:30;;;;;;;37.70;26.10;;;;;;;7.26;100.00;101114.00;5102256;28;20044;-63
2023/02/22 09:07:59;;;;;;;41.63;28.15;;;;;;;7.32;100.00;101112.22;5076445;28;20051;-64
2023/02/22 09:10:31;;;;;;;39.35;28.17;;;;;;;7.35;100.00;101111.75;5093419;28;20396;-64
2023/02/22 09:13:02;;;;;;;40.70;27.83;;;;;;;7.33;100.00;101108.44;5113646;28;20054;-64
2023/02/22 09:15:31;;;;;;;37.13;26.52;;;;;;;7.37;100.00;101096.88;5113911;28;20051;-64
2023/02/22 09:17:59;;;;;;;37.92;25.75;;;;;;;7.41;100.00;101094.53;5114644;28;20051;-65
2023/02/22 09:20:27;;;;;;;41.38;27.42;;;;;;;7.42;100.00;101090.75;5108059;28;20051;-66
2023/02/22 09:22:55;;;;;;;36.47;25.08;;;;;;;7.45;100.00;101092.97;5093764;28;20132;-66
2023/02/22 09:25:23;;;;;;;39.13;26.33;;;;;;;7.46;100.00;101097.34;5092838;28;20058;-66
2023/02/22 09:27:52;;;;;;;40.08;27.08;;;;;;;7.47;100.00;101107.13;5093820;28;20140;-66
2023/02/22 09:30:32;;;;;;;40.20;26.52;;;;;;;7.45;100.00;101095.69;5094357;28;20044;-66
2023/02/22 09:33:04;;;;;;;37.58;26.00;;;;;;;7.43;100.00;101084.25;5092690;28;20051;-67
2023/02/22 09:35:34;;;;;;;41.17;26.98;;;;;;;7.44;100.00;101083.22;5093326;28;20040;-65
2023/02/22 09:38:07;;;;;;;36.63;25.88;;;;;;;7.45;100.00;101090.25;5093790;28;20507;-66
2023/02/22 09:40:43;;;;;;;40.50;26.38;;;;;;;7.47;100.00;101082.72;5092726;28;20052;-64
2023/02/22 09:43:31;;;;;;;39.40;26.98;;;;;;;7.50;100.00;101076.81;5092699;28;20121;-65
2023/02/22 09:46:17;;;;;;;35.70;23.55;;;;;;;7.55;100.00;101079.63;5093859;28;20051;-65
2023/02/22 09:48:52;;;;;;;38.78;25.83;;;;;;;7.60;100.00;101071.59;5094278;28;20063;-66
2023/02/22 09:51:20;;;;;;;38.05;25.38;;;;;;;7.64;100.00;101071.94;5094776;28;20076;-66
2023/02/22 09:53:49;;;;;;;40.35;25.73;;;;;;;7.66;100.00;101076.03;5075775;28;20052;-65
2023/02/22 09:56:19;;;;;;;39.70;26.80;;;;;;;7.71;100.00;101077.22;5092593;28;20044;-66
2023/02/22 09:58:51;;;;;;;36.63;25.05;;;;;;;7.71;100.00;101064.47;5093334;28;20127;-64
2023/02/22 10:01:31;;;;;;;38.95;25.98;;;;;;;7.72;100.00;101068.84;5077186;28;20048;-65
2023/02/22 10:04:17;;;;;;;41.63;26.95;;;;;;;7.76;100.00;101061.03;5092382;28;20052;-66
2023/02/22 10:07:08;;;;;;;37.55;27.15;;;;;;;7.79;100.00;101060.53;5092100;28;20032;-66
2023/02/22 10:09:41;;;;;;;39.63;25.48;;;;;;;7.82;100.00;101057.34;5093691;28;20044;-65
2023/02/22 10:12:28;;;;;;;37.25;24.42;;;;;;;7.87;100.00;101063.69;5093203;28;20056;-66
2023/02/22 10:15:05;;;;;;;33.05;24.13;;;;;;;7.92;100.00;101052.09;5096165;28;20496;-66
2023/02/22 10:18:12;;;;;;;36.58;24.75;;;;;;;7.94;100.00;101047.25;5096848;28;20044;-65
2023/02/22 10:20:57;;;;;;;33.10;23.13;;;;;;;7.98;100.00;101045.69;5097199;28;20507;-65
2023/02/22 10:23:35;;;;;;;35.30;23.85;;;;;;;8.01;100.00;101050.63;5096560;28;20050;-64
2023/02/22 10:26:27;;;;;;;39.80;24.92;;;;;;;8.03;100.00;101047.66;5096387;28;20048;-65
2023/02/22 10:29:16;;;;;;;37.05;23.77;;;;;;;8.04;100.00;101047.44;5111791;28;20398;-66
2023/02/22 10:31:54;;;;;;;33.30;23.45;;;;;;;8.06;100.00;101041.75;5109797;28;20048;-64
2023/02/22 10:34:27;;;;;;;39.58;24.85;;;;;;;8.10;100.00;101043.75;5088978;28;20047;-66
2023/02/22 10:37:22;;;;;;;33.05;24.42;;;;;;;8.15;100.00;101048.41;5097923;28;20044;-65
2023/02/22 10:39:52;;;;;;;37.38;25.10;;;;;;;8.21;100.00;101043.91;5079393;28;20381;-66
2023/02/22 10:42:23;;;;;;;37.00;25.02;;;;;;;8.20;100.00;101047.66;5096292;28;20048;-66
2023/02/22 10:44:51;;;;;;;34.92;23.85;;;;;;;8.22;100.00;101050.97;5096603;28;20384;-66
2023/02/22 10:47:19;;;;;;;32.22;22.77;;;;;;;8.26;100.00;101052.13;5116115;28;20120;-66
2023/02/22 10:49:57;;;;;;;29.75;18.40;;;;;;;8.33;100.00;101047.34;5116649;28;20050;-66
2023/02/22 10:52:30;;;;;;;26.90;17.92;;;;;;;8.42;100.00;101040.47;5114090;28;20122;-65
2023/02/22 10:54:59;;;;;;;23.80;17.20;;;;;;;8.46;100.00;101041.59;5114217;28;20051;-65
2023/02/22 10:57:45;;;;;;;22.50;17.27;;;;;;;8.51;100.00;101049.84;5107663;28;20081;-66
2023/02/22 11:00:29;;;;;;;26.67;16.40;;;;;;;8.63;100.00;101046.19;5095281;28;20051;-66
2023/02/22 11:02:59;;;;;;;31.20;16.75;;;;;;;8.71;100.00;101040.34;5062990;28;20047;-67
2023/02/22 11:05:36;;;;;;;25.70;18.38;;;;;;;8.67;100.00;101041.91;5088022;28;20052;-66
2023/02/22 11:08:20;;;;;;;22.92;17.85;;;;;;;8.62;100.00;101050.00;5078680;28;20047;-66
2023/02/22 11:10:49;;;;;;;21.50;15.25;;;;;;;8.62;100.00;101044.56;5096414;28;20064;-66
2023/02/22 11:13:27;;;;;;;26.15;15.13;;;;;;;8.68;100.00;101049.81;5096101;28;20043;-66
2023/02/22 11:15:59;;;;;;;26.38;15.63;;;;;;;8.76;100.00;101040.41;5096152;28;20080;-67
2023/02/22 11:18:33;;;;;;;31.65;17.83;;;;;;;8.93;100.00;101043.91;5095032;28;20047;-66
2023/02/22 11:21:06;;;;;;;27.70;17.58;;;;;;;9.02;100.00;101043.47;5078098;28;20052;-66
2023/02/22 11:23:36;;;;;;;26.05;16.52;;;;;;;9.03;100.00;101045.13;5106059;28;20047;-67
2023/02/22 11:26:10;;;;;;;23.17;15.43;;;;;;;9.00;100.00;101040.19;5116344;28;20399;-67
2023/02/22 11:28:48;;;;;;;24.08;15.23;;;;;;;8.97;100.00;101038.78;5098580;28;20071;-67
2023/02/22 11:31:22;;;;;;;23.10;15.18;;;;;;;9.00;100.00;101040.19;5115078;28;20040;-66
2023/02/22 11:34:00;;;;;;;22.55;15.15;;;;;;;9.04;100.00;101036.69;5114725;28;20046;-66